Tiptop, Virginia
Current Conditions -  °F | °C
As of 6:55 AM on Sunday 23 Nov 2014 (Local Time) from KJFZ Reporting Station
Clear Clear  
Wind Chill: 46°   Ceiling: Unl
Heat Index: 48°   Visibility: 10mi
Dew Point: 35°   Wind: 5mph
Humidity: 60%   Direction: 140°SE
Pressure: 30.12"   Gusts: NA
Location:  37.1608°N, 81.5125°W
Report Text: KJFZ 231155Z AUTO 14004KT 10SM CLR 09/02 A3012 RMK AO2 T00880015 10109 20088
Loading
Personal Weather Stations






























Interactive Weather Map New forecast layout! Learn more

10-Day Weather Forecast

Advertisements
Track Severe Weather on mobile